sensor_id;sensor_type;location;lat;lon;timestamp;temperature;humidity
22089;DHT22;11211;52.728;9.230;2022-09-03T04:02:03;20.00;76.30
22089;DHT22;11211;52.728;9.230;2022-09-03T04:04:30;20.00;76.30
22089;DHT22;11211;52.728;9.230;2022-09-03T04:06:57;20.00;76.30
22089;DHT22;11211;52.728;9.230;2022-09-03T04:09:24;20.00;76.30
22089;DHT22;11211;52.728;9.230;2022-09-03T04:11:53;20.00;76.30
22089;DHT22;11211;52.728;9.230;2022-09-03T04:14:22;19.90;76.20
22089;DHT22;11211;52.728;9.230;2022-09-03T04:16:49;20.00;76.30
22089;DHT22;11211;52.728;9.230;2022-09-03T04:19:17;20.00;76.20
22089;DHT22;11211;52.728;9.230;2022-09-03T04:21:44;20.00;76.30
22089;DHT22;11211;52.728;9.230;2022-09-03T04:24:11;20.00;76.20
22089;DHT22;11211;52.728;9.230;2022-09-03T04:26:38;20.00;76.30
22089;DHT22;11211;52.728;9.230;2022-09-03T04:29:07;20.00;76.30
22089;DHT22;11211;52.728;9.230;2022-09-03T04:31:35;20.00;76.30
22089;DHT22;11211;52.728;9.230;2022-09-03T04:34:03;20.00;76.30
22089;DHT22;11211;52.728;9.230;2022-09-03T04:36:32;20.00;76.30
22089;DHT22;11211;52.728;9.230;2022-09-03T04:38:59;20.00;76.30
22089;DHT22;11211;52.728;9.230;2022-09-03T04:41:28;20.00;76.30
22089;DHT22;11211;52.728;9.230;2022-09-03T04:43:58;20.00;76.20
22089;DHT22;11211;52.728;9.230;2022-09-03T04:46:26;20.00;76.20
22089;DHT22;11211;52.728;9.230;2022-09-03T04:48:58;19.90;76.10
22089;DHT22;11211;52.728;9.230;2022-09-03T04:51:26;20.00;76.10
22089;DHT22;11211;52.728;9.230;2022-09-03T04:53:56;20.00;76.10
22089;DHT22;11211;52.728;9.230;2022-09-03T04:56:26;20.00;76.10
22089;DHT22;11211;52.728;9.230;2022-09-03T04:58:54;20.00;76.00
22089;DHT22;11211;52.728;9.230;2022-09-03T05:01:23;20.00;76.00
22089;DHT22;11211;52.728;9.230;2022-09-03T05:03:50;20.00;76.00
22089;DHT22;11211;52.728;9.230;2022-09-03T05:06:17;20.00;76.00
22089;DHT22;11211;52.728;9.230;2022-09-03T05:08:47;20.00;76.10
22089;DHT22;11211;52.728;9.230;2022-09-03T05:11:16;20.00;76.20
22089;DHT22;11211;52.728;9.230;2022-09-03T05:13:45;20.00;76.30
22089;DHT22;11211;52.728;9.230;2022-09-03T05:16:12;20.00;76.30
22089;DHT22;11211;52.728;9.230;2022-09-03T05:18:40;20.00;76.30
22089;DHT22;11211;52.728;9.230;2022-09-03T05:21:08;19.90;76.30
22089;DHT22;11211;52.728;9.230;2022-09-03T05:23:36;20.00;76.60
22089;DHT22;11211;52.728;9.230;2022-09-03T05:29:04;20.00;76.70
22089;DHT22;11211;52.728;9.230;2022-09-03T05:31:34;20.00;76.70
22089;DHT22;11211;52.728;9.230;2022-09-03T05:34:04;20.00;76.80
22089;DHT22;11211;52.728;9.230;2022-09-03T05:36:32;20.00;76.70
22089;DHT22;11211;52.728;9.230;2022-09-03T05:39:00;19.90;76.70
22089;DHT22;11211;52.728;9.230;2022-09-03T05:41:29;20.00;76.80
22089;DHT22;11211;52.728;9.230;2022-09-03T05:44:11;20.00;76.90
22089;DHT22;11211;52.728;9.230;2022-09-03T05:46:38;20.00;76.90
22089;DHT22;11211;52.728;9.230;2022-09-03T05:49:08;20.00;76.90
22089;DHT22;11211;52.728;9.230;2022-09-03T05:51:36;19.90;76.80
22089;DHT22;11211;52.728;9.230;2022-09-03T05:54:04;20.00;76.90
22089;DHT22;11211;52.728;9.230;2022-09-03T05:56:33;20.00;76.90
22089;DHT22;11211;52.728;9.230;2022-09-03T05:59:04;20.00;76.90
22089;DHT22;11211;52.728;9.230;2022-09-03T06:01:36;20.00;76.90
22089;DHT22;11211;52.728;9.230;2022-09-03T06:04:04;20.00;76.90
22089;DHT22;11211;52.728;9.230;2022-09-03T06:06:33;20.00;76.90
22089;DHT22;11211;52.728;9.230;2022-09-03T06:09:04;20.00;76.90
22089;DHT22;11211;52.728;9.230;2022-09-03T06:11:32;20.00;76.90
22089;DHT22;11211;52.728;9.230;2022-09-03T06:14:00;20.00;76.90
22089;DHT22;11211;52.728;9.230;2022-09-03T06:16:31;20.00;76.90
22089;DHT22;11211;52.728;9.230;2022-09-03T06:19:00;20.00;77.00
22089;DHT22;11211;52.728;9.230;2022-09-03T06:21:27;20.00;77.20
22089;DHT22;11211;52.728;9.230;2022-09-03T06:23:55;20.00;77.20
22089;DHT22;11211;52.728;9.230;2022-09-03T06:26:23;20.00;77.30
22089;DHT22;11211;52.728;9.230;2022-09-03T06:28:52;20.00;77.40
22089;DHT22;11211;52.728;9.230;2022-09-03T06:31:21;20.00;77.50
22089;DHT22;11211;52.728;9.230;2022-09-03T06:33:48;20.00;78.40
22089;DHT22;11211;52.728;9.230;2022-09-03T06:36:19;20.00;77.60
22089;DHT22;11211;52.728;9.230;2022-09-03T06:38:56;20.00;78.40
22089;DHT22;11211;52.728;9.230;2022-09-03T06:41:27;19.90;77.50
22089;DHT22;11211;52.728;9.230;2022-09-03T06:43:59;19.90;77.40
22089;DHT22;11211;52.728;9.230;2022-09-03T06:46:36;19.90;77.50
22089;DHT22;11211;52.728;9.230;2022-09-03T06:49:03;20.00;77.40
22089;DHT22;11211;52.728;9.230;2022-09-03T06:51:32;19.90;77.30
22089;DHT22;11211;52.728;9.230;2022-09-03T06:54:00;20.00;77.40
22089;DHT22;11211;52.728;9.230;2022-09-03T06:56:27;19.90;77.20
22089;DHT22;11211;52.728;9.230;2022-09-03T06:58:55;19.90;77.20
22089;DHT22;11211;52.728;9.230;2022-09-03T07:01:24;19.90;77.00
22089;DHT22;11211;52.728;9.230;2022-09-03T07:03:53;19.90;76.90
22089;DHT22;11211;52.728;9.230;2022-09-03T07:06:22;19.90;76.90
22089;DHT22;11211;52.728;9.230;2022-09-03T07:08:51;19.90;76.80
22089;DHT22;11211;52.728;9.230;2022-09-03T07:11:20;19.90;76.70
22089;DHT22;11211;52.728;9.230;2022-09-03T07:13:49;19.90;76.60
22089;DHT22;11211;52.728;9.230;2022-09-03T07:16:17;19.90;76.60
22089;DHT22;11211;52.728;9.230;2022-09-03T07:18:45;19.90;76.60
22089;DHT22;11211;52.728;9.230;2022-09-03T07:21:13;19.90;76.50
22089;DHT22;11211;52.728;9.230;2022-09-03T07:23:41;19.90;76.60
22089;DHT22;11211;52.728;9.230;2022-09-03T07:26:10;19.90;76.50
22089;DHT22;11211;52.728;9.230;2022-09-03T07:28:39;19.90;76.60
22089;DHT22;11211;52.728;9.230;2022-09-03T07:31:08;19.90;76.60
22089;DHT22;11211;52.728;9.230;2022-09-03T07:33:36;19.90;76.70
22089;DHT22;11211;52.728;9.230;2022-09-03T07:36:05;19.90;76.70
22089;DHT22;11211;52.728;9.230;2022-09-03T07:38:32;19.90;76.80
22089;DHT22;11211;52.728;9.230;2022-09-03T07:41:00;19.90;76.80
22089;DHT22;11211;52.728;9.230;2022-09-03T07:43:33;19.90;76.70
22089;DHT22;11211;52.728;9.230;2022-09-03T07:46:00;20.00;76.70
22089;DHT22;11211;52.728;9.230;2022-09-03T07:48:27;19.90;76.50
22089;DHT22;11211;52.728;9.230;2022-09-03T07:50:57;19.90;76.50
22089;DHT22;11211;52.728;9.230;2022-09-03T07:53:25;20.00;77.50
22089;DHT22;11211;52.728;9.230;2022-09-03T07:55:52;19.90;76.60
22089;DHT22;11211;52.728;9.230;2022-09-03T07:58:21;19.90;76.50
22089;DHT22;11211;52.728;9.230;2022-09-03T08:00:50;19.90;76.60
22089;DHT22;11211;52.728;9.230;2022-09-03T08:03:18;20.00;76.60
22089;DHT22;11211;52.728;9.230;2022-09-03T08:05:45;19.90;76.60
22089;DHT22;11211;52.728;9.230;2022-09-03T08:08:12;20.00;76.50
22089;DHT22;11211;52.728;9.230;2022-09-03T08:10:40;19.90;76.30
22089;DHT22;11211;52.728;9.230;2022-09-03T08:13:07;19.90;77.00
22089;DHT22;11211;52.728;9.230;2022-09-03T08:15:35;20.00;76.10
22089;DHT22;11211;52.728;9.230;2022-09-03T08:18:06;19.90;75.90
22089;DHT22;11211;52.728;9.230;2022-09-03T08:20:32;19.90;75.70
22089;DHT22;11211;52.728;9.230;2022-09-03T08:23:00;19.90;75.60
22089;DHT22;11211;52.728;9.230;2022-09-03T08:25:27;19.90;75.70
22089;DHT22;11211;52.728;9.230;2022-09-03T08:27:57;19.90;75.60
22089;DHT22;11211;52.728;9.230;2022-09-03T08:30:25;19.90;75.50
22089;DHT22;11211;52.728;9.230;2022-09-03T08:32:52;20.00;75.50
22089;DHT22;11211;52.728;9.230;2022-09-03T08:35:21;20.00;75.50
22089;DHT22;11211;52.728;9.230;2022-09-03T08:37:48;19.90;75.50
22089;DHT22;11211;52.728;9.230;2022-09-03T08:40:19;20.00;75.70
22089;DHT22;11211;52.728;9.230;2022-09-03T08:42:57;20.00;75.70
22089;DHT22;11211;52.728;9.230;2022-09-03T08:45:32;20.00;75.90
22089;DHT22;11211;52.728;9.230;2022-09-03T08:48:04;20.00;76.00
22089;DHT22;11211;52.728;9.230;2022-09-03T08:50:38;20.00;76.20
22089;DHT22;11211;52.728;9.230;2022-09-03T08:53:11;20.00;76.30
22089;DHT22;11211;52.728;9.230;2022-09-03T08:55:46;20.00;76.30
22089;DHT22;11211;52.728;9.230;2022-09-03T08:58:17;20.00;76.30
22089;DHT22;11211;52.728;9.230;2022-09-03T09:00:51;20.00;76.30
22089;DHT22;11211;52.728;9.230;2022-09-03T09:03:41;20.00;76.20
22089;DHT22;11211;52.728;9.230;2022-09-03T09:06:18;20.00;76.30
22089;DHT22;11211;52.728;9.230;2022-09-03T09:08:58;20.00;76.30
22089;DHT22;11211;52.728;9.230;2022-09-03T09:11:39;20.00;76.10
22089;DHT22;11211;52.728;9.230;2022-09-03T09:14:18;20.00;76.10
22089;DHT22;11211;52.728;9.230;2022-09-03T09:16:51;20.00;76.10
22089;DHT22;11211;52.728;9.230;2022-09-03T09:19:30;20.00;76.20
22089;DHT22;11211;52.728;9.230;2022-09-03T09:22:06;20.00;76.30
22089;DHT22;11211;52.728;9.230;2022-09-03T09:24:38;20.00;76.40
22089;DHT22;11211;52.728;9.230;2022-09-03T09:27:07;20.00;76.60
22089;DHT22;11211;52.728;9.230;2022-09-03T09:29:36;20.00;76.70
22089;DHT22;11211;52.728;9.230;2022-09-03T09:32:04;20.00;76.70
22089;DHT22;11211;52.728;9.230;2022-09-03T09:34:33;20.00;76.80
22089;DHT22;11211;52.728;9.230;2022-09-03T09:37:04;20.00;76.90
22089;DHT22;11211;52.728;9.230;2022-09-03T09:39:31;20.00;76.90
22089;DHT22;11211;52.728;9.230;2022-09-03T09:41:59;20.00;76.80
22089;DHT22;11211;52.728;9.230;2022-09-03T09:44:32;20.00;76.70
22089;DHT22;11211;52.728;9.230;2022-09-03T09:47:04;20.00;76.90
22089;DHT22;11211;52.728;9.230;2022-09-03T09:49:34;20.00;76.90
22089;DHT22;11211;52.728;9.230;2022-09-03T09:52:07;20.00;76.90
22089;DHT22;11211;52.728;9.230;2022-09-03T09:54:36;20.00;77.00
22089;DHT22;11211;52.728;9.230;2022-09-03T09:57:06;20.00;77.10
22089;DHT22;11211;52.728;9.230;2022-09-03T09:59:36;20.00;77.20
22089;DHT22;11211;52.728;9.230;2022-09-03T10:02:11;20.00;77.20
22089;DHT22;11211;52.728;9.230;2022-09-03T10:04:39;20.00;77.20
22089;DHT22;11211;52.728;9.230;2022-09-03T10:07:23;20.00;77.30
22089;DHT22;11211;52.728;9.230;2022-09-03T10:09:59;20.00;77.50
22089;DHT22;11211;52.728;9.230;2022-09-03T10:12:31;20.00;77.40
22089;DHT22;11211;52.728;9.230;2022-09-03T10:15:16;20.00;77.50
22089;DHT22;11211;52.728;9.230;2022-09-03T10:17:56;20.00;77.50
22089;DHT22;11211;52.728;9.230;2022-09-03T10:20:32;20.00;77.50
22089;DHT22;11211;52.728;9.230;2022-09-03T10:23:08;20.00;77.50
22089;DHT22;11211;52.728;9.230;2022-09-03T10:25:41;20.00;77.50
22089;DHT22;11211;52.728;9.230;2022-09-03T10:28:14;20.00;77.50
22089;DHT22;11211;52.728;9.230;2022-09-03T10:31:11;20.00;77.50
22089;DHT22;11211;52.728;9.230;2022-09-03T10:33:43;20.00;77.60
22089;DHT22;11211;52.728;9.230;2022-09-03T10:36:19;20.00;77.60
22089;DHT22;11211;52.728;9.230;2022-09-03T10:38:53;20.00;77.50
22089;DHT22;11211;52.728;9.230;2022-09-03T10:41:37;20.00;77.60
22089;DHT22;11211;52.728;9.230;2022-09-03T10:44:19;20.00;77.60
22089;DHT22;11211;52.728;9.230;2022-09-03T10:46:56;19.90;77.50
22089;DHT22;11211;52.728;9.230;2022-09-03T10:49:42;20.00;77.60
22089;DHT22;11211;52.728;9.230;2022-09-03T10:52:18;20.00;77.60
22089;DHT22;11211;52.728;9.230;2022-09-03T10:54:58;19.90;77.60
22089;DHT22;11211;52.728;9.230;2022-09-03T10:57:36;20.00;77.60
22089;DHT22;11211;52.728;9.230;2022-09-03T11:00:10;20.00;77.70
22089;DHT22;11211;52.728;9.230;2022-09-03T11:02:51;20.00;77.70
22089;DHT22;11211;52.728;9.230;2022-09-03T11:05:26;20.00;77.70
22089;DHT22;11211;52.728;9.230;2022-09-03T11:07:58;20.00;77.60
22089;DHT22;11211;52.728;9.230;2022-09-03T11:10:30;20.00;77.60
22089;DHT22;11211;52.728;9.230;2022-09-03T11:13:02;20.00;77.50
22089;DHT22;11211;52.728;9.230;2022-09-03T11:15:35;20.00;77.50
22089;DHT22;11211;52.728;9.230;2022-09-03T11:18:11;20.00;78.30
22089;DHT22;11211;52.728;9.230;2022-09-03T11:20:40;20.00;77.50
22089;DHT22;11211;52.728;9.230;2022-09-03T11:23:09;20.00;77.40
22089;DHT22;11211;52.728;9.230;2022-09-03T11:25:41;20.00;77.50
22089;DHT22;11211;52.728;9.230;2022-09-03T11:28:17;20.00;77.50
22089;DHT22;11211;52.728;9.230;2022-09-03T11:31:03;20.00;77.40
22089;DHT22;11211;52.728;9.230;2022-09-03T11:33:33;20.00;77.40
22089;DHT22;11211;52.728;9.230;2022-09-03T11:36:05;20.00;77.50
22089;DHT22;11211;52.728;9.230;2022-09-03T11:38:32;20.00;77.50
22089;DHT22;11211;52.728;9.230;2022-09-03T11:41:11;20.00;77.40
22089;DHT22;11211;52.728;9.230;2022-09-03T11:43:39;20.00;77.40
22089;DHT22;11211;52.728;9.230;2022-09-03T11:46:09;20.00;77.40
22089;DHT22;11211;52.728;9.230;2022-09-03T11:48:42;20.00;77.40
22089;DHT22;11211;52.728;9.230;2022-09-03T11:51:20;20.00;77.40
22089;DHT22;11211;52.728;9.230;2022-09-03T11:53:57;20.00;77.50
22089;DHT22;11211;52.728;9.230;2022-09-03T11:56:26;20.00;77.30
22089;DHT22;11211;52.728;9.230;2022-09-03T11:59:03;20.00;77.20
22089;DHT22;11211;52.728;9.230;2022-09-03T12:01:32;20.00;77.20
22089;DHT22;11211;52.728;9.230;2022-09-03T12:04:01;20.00;77.20
22089;DHT22;11211;52.728;9.230;2022-09-03T12:07:06;20.00;77.20
22089;DHT22;11211;52.728;9.230;2022-09-03T12:10:06;20.00;77.20
22089;DHT22;11211;52.728;9.230;2022-09-03T12:12:57;20.00;77.10
22089;DHT22;11211;52.728;9.230;2022-09-03T12:15:39;20.00;77.20
22089;DHT22;11211;52.728;9.230;2022-09-03T12:18:13;20.00;77.20
22089;DHT22;11211;52.728;9.230;2022-09-03T12:20:59;20.00;77.20
22089;DHT22;11211;52.728;9.230;2022-09-03T12:23:28;20.00;77.10
22089;DHT22;11211;52.728;9.230;2022-09-03T12:25:55;20.00;77.10
22089;DHT22;11211;52.728;9.230;2022-09-03T12:28:25;20.00;77.20
22089;DHT22;11211;52.728;9.230;2022-09-03T12:31:05;20.00;77.10
22089;DHT22;11211;52.728;9.230;2022-09-03T12:33:46;20.00;77.00
22089;DHT22;11211;52.728;9.230;2022-09-03T12:36:14;20.00;77.00
22089;DHT22;11211;52.728;9.230;2022-09-03T12:38:41;20.00;77.00
22089;DHT22;11211;52.728;9.230;2022-09-03T12:41:22;20.00;76.90
22089;DHT22;11211;52.728;9.230;2022-09-03T12:43:53;20.00;76.80
22089;DHT22;11211;52.728;9.230;2022-09-03T12:46:25;20.00;76.70
22089;DHT22;11211;52.728;9.230;2022-09-03T12:48:56;20.00;76.70
22089;DHT22;11211;52.728;9.230;2022-09-03T12:51:31;20.00;76.70
22089;DHT22;11211;52.728;9.230;2022-09-03T12:53:58;20.00;76.90
22089;DHT22;11211;52.728;9.230;2022-09-03T12:56:26;20.00;76.90
22089;DHT22;11211;52.728;9.230;2022-09-03T12:59:02;20.00;76.90
22089;DHT22;11211;52.728;9.230;2022-09-03T13:01:33;20.00;76.80
22089;DHT22;11211;52.728;9.230;2022-09-03T13:04:04;20.00;76.80
22089;DHT22;11211;52.728;9.230;2022-09-03T13:06:41;20.00;76.90
22089;DHT22;11211;52.728;9.230;2022-09-03T13:09:10;20.00;76.90
22089;DHT22;11211;52.728;9.230;2022-09-03T13:11:36;20.00;76.80
22089;DHT22;11211;52.728;9.230;2022-09-03T13:14:07;19.90;76.70
22089;DHT22;11211;52.728;9.230;2022-09-03T13:19:54;20.00;76.70
22089;DHT22;11211;52.728;9.230;2022-09-03T13:22:32;20.00;76.60
22089;DHT22;11211;52.728;9.230;2022-09-03T13:25:12;20.00;76.70
22089;DHT22;11211;52.728;9.230;2022-09-03T13:27:45;20.00;76.70
22089;DHT22;11211;52.728;9.230;2022-09-03T13:30:20;20.00;76.60
22089;DHT22;11211;52.728;9.230;2022-09-03T13:32:56;19.90;76.60
22089;DHT22;11211;52.728;9.230;2022-09-03T13:35:33;19.90;76.60
22089;DHT22;11211;52.728;9.230;2022-09-03T13:38:08;19.90;76.60
22089;DHT22;11211;52.728;9.230;2022-09-03T13:40:44;20.00;76.70
22089;DHT22;11211;52.728;9.230;2022-09-03T13:43:22;20.00;76.80
22089;DHT22;11211;52.728;9.230;2022-09-03T13:45:56;20.00;76.70
22089;DHT22;11211;52.728;9.230;2022-09-03T13:48:28;20.00;76.70
22089;DHT22;11211;52.728;9.230;2022-09-03T13:51:18;20.00;76.70
22089;DHT22;11211;52.728;9.230;2022-09-03T13:53:56;20.00;76.70
22089;DHT22;11211;52.728;9.230;2022-09-03T13:56:31;20.00;76.80
22089;DHT22;11211;52.728;9.230;2022-09-03T13:59:04;19.90;76.80
22089;DHT22;11211;52.728;9.230;2022-09-03T14:01:44;19.90;76.80
22089;DHT22;11211;52.728;9.230;2022-09-03T14:04:19;19.90;77.60
22089;DHT22;11211;52.728;9.230;2022-09-03T14:06:55;20.00;76.90
22089;DHT22;11211;52.728;9.230;2022-09-03T14:09:34;20.00;76.90
22089;DHT22;11211;52.728;9.230;2022-09-03T14:12:13;20.00;76.90
22089;DHT22;11211;52.728;9.230;2022-09-03T14:14:51;20.00;76.90
22089;DHT22;11211;52.728;9.230;2022-09-03T14:17:29;20.00;77.00
22089;DHT22;11211;52.728;9.230;2022-09-03T14:20:05;20.00;76.90
22089;DHT22;11211;52.728;9.230;2022-09-03T14:22:44;19.90;76.80
22089;DHT22;11211;52.728;9.230;2022-09-03T14:25:16;20.00;76.90
22089;DHT22;11211;52.728;9.230;2022-09-03T14:27:43;20.00;76.90
22089;DHT22;11211;52.728;9.230;2022-09-03T14:30:19;20.00;76.90
22089;DHT22;11211;52.728;9.230;2022-09-03T14:32:57;20.00;77.00
22089;DHT22;11211;52.728;9.230;2022-09-03T14:35:34;20.00;76.90
22089;DHT22;11211;52.728;9.230;2022-09-03T14:44:21;20.00;76.90
22089;DHT22;11211;52.728;9.230;2022-09-03T14:47:01;20.00;76.70
22089;DHT22;11211;52.728;9.230;2022-09-03T14:49:46;20.00;76.70
22089;DHT22;11211;52.728;9.230;2022-09-03T14:55:28;20.00;76.10
22089;DHT22;11211;52.728;9.230;2022-09-03T14:58:16;19.90;75.60
22089;DHT22;11211;52.728;9.230;2022-09-03T15:00:51;20.00;75.30
22089;DHT22;11211;52.728;9.230;2022-09-03T15:06:13;20.00;74.80
22089;DHT22;11211;52.728;9.230;2022-09-03T15:08:56;19.90;74.50
22089;DHT22;11211;52.728;9.230;2022-09-03T15:11:30;19.90;74.30
22089;DHT22;11211;52.728;9.230;2022-09-03T15:14:03;20.00;74.30
22089;DHT22;11211;52.728;9.230;2022-09-03T15:16:42;20.00;74.30
22089;DHT22;11211;52.728;9.230;2022-09-03T15:19:18;19.90;74.30
22089;DHT22;11211;52.728;9.230;2022-09-03T15:22:02;20.00;74.30
22089;DHT22;11211;52.728;9.230;2022-09-03T15:24:45;20.00;74.30
22089;DHT22;11211;52.728;9.230;2022-09-03T15:27:27;20.00;74.30
22089;DHT22;11211;52.728;9.230;2022-09-03T15:30:04;20.00;74.40
22089;DHT22;11211;52.728;9.230;2022-09-03T15:35:37;20.00;74.30
22089;DHT22;11211;52.728;9.230;2022-09-03T15:38:11;19.90;74.20
22089;DHT22;11211;52.728;9.230;2022-09-03T15:40:48;20.00;74.30
22089;DHT22;11211;52.728;9.230;2022-09-03T15:43:24;20.00;74.30
22089;DHT22;11211;52.728;9.230;2022-09-03T15:45:53;19.90;74.10
22089;DHT22;11211;52.728;9.230;2022-09-03T15:48:31;19.90;74.10
22089;DHT22;11211;52.728;9.230;2022-09-03T15:51:08;19.90;74.10
22089;DHT22;11211;52.728;9.230;2022-09-03T15:53:41;19.90;74.30
22089;DHT22;11211;52.728;9.230;2022-09-03T15:56:17;20.00;74.50
22089;DHT22;11211;52.728;9.230;2022-09-03T15:58:49;19.90;74.40
22089;DHT22;11211;52.728;9.230;2022-09-03T16:01:34;20.00;74.60
22089;DHT22;11211;52.728;9.230;2022-09-03T16:04:09;20.00;74.60
22089;DHT22;11211;52.728;9.230;2022-09-03T16:06:46;20.00;74.60
22089;DHT22;11211;52.728;9.230;2022-09-03T16:09:27;19.90;74.40
22089;DHT22;11211;52.728;9.230;2022-09-03T16:12:09;19.90;74.40
22089;DHT22;11211;52.728;9.230;2022-09-03T16:14:41;20.00;74.60
22089;DHT22;11211;52.728;9.230;2022-09-03T16:17:20;20.00;74.60
22089;DHT22;11211;52.728;9.230;2022-09-03T16:19:53;19.90;74.50
22089;DHT22;11211;52.728;9.230;2022-09-03T16:22:25;20.00;74.60
22089;DHT22;11211;52.728;9.230;2022-09-03T16:24:58;20.00;74.50
22089;DHT22;11211;52.728;9.230;2022-09-03T16:27:29;20.00;74.50
22089;DHT22;11211;52.728;9.230;2022-09-03T16:30:00;20.00;74.50
22089;DHT22;11211;52.728;9.230;2022-09-03T16:32:37;20.00;74.50
22089;DHT22;11211;52.728;9.230;2022-09-03T16:35:14;19.90;74.40
22089;DHT22;11211;52.728;9.230;2022-09-03T16:37:50;20.00;74.40
22089;DHT22;11211;52.728;9.230;2022-09-03T16:40:30;19.90;74.30
22089;DHT22;11211;52.728;9.230;2022-09-03T16:43:04;20.00;75.20
22089;DHT22;11211;52.728;9.230;2022-09-03T16:45:37;19.90;74.30
22089;DHT22;11211;52.728;9.230;2022-09-03T16:48:15;20.00;74.30
22089;DHT22;11211;52.728;9.230;2022-09-03T16:50:58;19.90;74.20
22089;DHT22;11211;52.728;9.230;2022-09-03T16:53:39;19.90;74.30
22089;DHT22;11211;52.728;9.230;2022-09-03T16:56:18;20.00;74.40
22089;DHT22;11211;52.728;9.230;2022-09-03T16:59:01;20.00;74.40
22089;DHT22;11211;52.728;9.230;2022-09-03T17:01:42;19.90;74.40
22089;DHT22;11211;52.728;9.230;2022-09-03T17:04:30;19.90;74.30
22089;DHT22;11211;52.728;9.230;2022-09-03T17:07:11;19.90;74.30
22089;DHT22;11211;52.728;9.230;2022-09-03T17:09:51;19.90;74.30
22089;DHT22;11211;52.728;9.230;2022-09-03T17:12:27;19.90;74.30
22089;DHT22;11211;52.728;9.230;2022-09-03T17:15:05;20.00;74.30
22089;DHT22;11211;52.728;9.230;2022-09-03T17:17:46;19.90;74.30
22089;DHT22;11211;52.728;9.230;2022-09-03T17:20:20;20.00;74.30
22089;DHT22;11211;52.728;9.230;2022-09-03T17:23:03;20.00;74.30
22089;DHT22;11211;52.728;9.230;2022-09-03T17:25:36;20.00;74.30
22089;DHT22;11211;52.728;9.230;2022-09-03T17:28:18;19.90;74.20
22089;DHT22;11211;52.728;9.230;2022-09-03T17:30:55;20.00;74.10
22089;DHT22;11211;52.728;9.230;2022-09-03T17:33:38;19.90;74.00
22089;DHT22;11211;52.728;9.230;2022-09-03T17:36:14;19.90;73.80
22089;DHT22;11211;52.728;9.230;2022-09-03T17:41:44;19.90;73.70
22089;DHT22;11211;52.728;9.230;2022-09-03T17:44:24;20.00;73.60
22089;DHT22;11211;52.728;9.230;2022-09-03T17:47:04;20.00;73.60
22089;DHT22;11211;52.728;9.230;2022-09-03T17:49:41;19.90;73.40
22089;DHT22;11211;52.728;9.230;2022-09-03T17:52:19;20.00;73.50
22089;DHT22;11211;52.728;9.230;2022-09-03T17:54:51;19.90;73.50
22089;DHT22;11211;52.728;9.230;2022-09-03T17:57:21;20.00;73.60
22089;DHT22;11211;52.728;9.230;2022-09-03T17:59:56;20.00;73.70
22089;DHT22;11211;52.728;9.230;2022-09-03T18:02:29;19.90;73.70
22089;DHT22;11211;52.728;9.230;2022-09-03T18:05:00;19.90;73.70
22089;DHT22;11211;52.728;9.230;2022-09-03T18:07:37;19.90;73.80
22089;DHT22;11211;52.728;9.230;2022-09-03T18:10:18;19.90;73.80
22089;DHT22;11211;52.728;9.230;2022-09-03T18:12:49;20.00;74.00
22089;DHT22;11211;52.728;9.230;2022-09-03T18:15:26;20.00;74.00
22089;DHT22;11211;52.728;9.230;2022-09-03T18:17:57;19.90;74.10
22089;DHT22;11211;52.728;9.230;2022-09-03T18:20:26;20.00;74.10
22089;DHT22;11211;52.728;9.230;2022-09-03T18:23:18;20.00;74.20
22089;DHT22;11211;52.728;9.230;2022-09-03T18:26:06;20.00;74.20
22089;DHT22;11211;52.728;9.230;2022-09-03T18:28:57;20.00;74.30
22089;DHT22;11211;52.728;9.230;2022-09-03T18:31:45;20.00;74.30
22089;DHT22;11211;52.728;9.230;2022-09-03T18:34:31;20.00;74.40
22089;DHT22;11211;52.728;9.230;2022-09-03T18:37:17;20.00;74.40
22089;DHT22;11211;52.728;9.230;2022-09-03T18:40:07;19.90;74.30
22089;DHT22;11211;52.728;9.230;2022-09-03T18:43:00;20.00;74.50
22089;DHT22;11211;52.728;9.230;2022-09-03T18:45:52;19.90;74.50
22089;DHT22;11211;52.728;9.230;2022-09-03T18:48:47;20.00;74.60
22089;DHT22;11211;52.728;9.230;2022-09-03T18:51:39;19.90;74.60
22089;DHT22;11211;52.728;9.230;2022-09-03T18:54:31;20.00;74.60
22089;DHT22;11211;52.728;9.230;2022-09-03T18:57:21;20.00;74.60
22089;DHT22;11211;52.728;9.230;2022-09-03T19:00:09;20.00;74.60
22089;DHT22;11211;52.728;9.230;2022-09-03T19:03:20;19.90;74.60
22089;DHT22;11211;52.728;9.230;2022-09-03T19:06:15;20.00;74.70
22089;DHT22;11211;52.728;9.230;2022-09-03T19:09:07;19.90;74.60
22089;DHT22;11211;52.728;9.230;2022-09-03T19:12:02;19.90;74.60
22089;DHT22;11211;52.728;9.230;2022-09-03T19:14:55;19.90;74.50
22089;DHT22;11211;52.728;9.230;2022-09-03T19:18:07;20.00;74.60
22089;DHT22;11211;52.728;9.230;2022-09-03T19:20:59;20.00;74.60
22089;DHT22;11211;52.728;9.230;2022-09-03T19:23:47;19.90;74.50
22089;DHT22;11211;52.728;9.230;2022-09-03T19:26:40;19.90;74.40
22089;DHT22;11211;52.728;9.230;2022-09-03T19:29:32;19.90;74.50
22089;DHT22;11211;52.728;9.230;2022-09-03T19:32:27;20.00;74.50
22089;DHT22;11211;52.728;9.230;2022-09-03T19:35:18;20.00;74.40
22089;DHT22;11211;52.728;9.230;2022-09-03T19:38:24;19.90;74.30
22089;DHT22;11211;52.728;9.230;2022-09-03T19:41:29;19.90;74.40
22089;DHT22;11211;52.728;9.230;2022-09-03T19:44:39;20.00;74.40
22089;DHT22;11211;52.728;9.230;2022-09-03T19:47:36;20.00;74.40
22089;DHT22;11211;52.728;9.230;2022-09-03T19:50:26;20.00;74.40
22089;DHT22;11211;52.728;9.230;2022-09-03T19:53:16;20.00;74.40
22089;DHT22;11211;52.728;9.230;2022-09-03T19:56:04;20.00;74.40
22089;DHT22;11211;52.728;9.230;2022-09-03T19:58:55;20.00;74.50
22089;DHT22;11211;52.728;9.230;2022-09-03T20:01:41;19.90;74.40
22089;DHT22;11211;52.728;9.230;2022-09-03T20:04:29;19.90;74.80
22089;DHT22;11211;52.728;9.230;2022-09-03T20:07:14;19.90;74.40
22089;DHT22;11211;52.728;9.230;2022-09-03T20:10:02;20.00;74.50
22089;DHT22;11211;52.728;9.230;2022-09-03T20:12:50;19.90;74.40
22089;DHT22;11211;52.728;9.230;2022-09-03T20:15:22;19.90;74.30
22089;DHT22;11211;52.728;9.230;2022-09-03T20:17:56;19.90;74.30
22089;DHT22;11211;52.728;9.230;2022-09-03T20:20:33;20.00;74.30
22089;DHT22;11211;52.728;9.230;2022-09-03T20:23:05;19.90;74.20
22089;DHT22;11211;52.728;9.230;2022-09-03T20:25:44;19.90;74.10
22089;DHT22;11211;52.728;9.230;2022-09-03T20:28:26;20.00;74.20
22089;DHT22;11211;52.728;9.230;2022-09-03T20:31:01;19.90;74.00
22089;DHT22;11211;52.728;9.230;2022-09-03T20:33:40;19.90;74.00
22089;DHT22;11211;52.728;9.230;2022-09-03T20:36:18;19.90;74.00
22089;DHT22;11211;52.728;9.230;2022-09-03T20:38:56;20.00;74.00
22089;DHT22;11211;52.728;9.230;2022-09-03T20:41:33;19.90;73.90
22089;DHT22;11211;52.728;9.230;2022-09-03T20:44:18;20.00;73.90
22089;DHT22;11211;52.728;9.230;2022-09-03T20:47:00;19.90;73.80